sensor_id;sensor_type;location;lat;lon;timestamp;P1;durP1;ratioP1;P2;durP2;ratioP2
17606;SDS011;69222;52.242;20.980;2023-09-19T00:02:14;9.55;;;8.00;;
17606;SDS011;69222;52.242;20.980;2023-09-19T00:04:42;9.70;;;7.35;;
17606;SDS011;69222;52.242;20.980;2023-09-19T00:07:11;8.68;;;7.78;;
17606;SDS011;69222;52.242;20.980;2023-09-19T00:09:40;8.30;;;7.38;;
17606;SDS011;69222;52.242;20.980;2023-09-19T00:12:10;10.30;;;7.47;;
17606;SDS011;69222;52.242;20.980;2023-09-19T00:14:39;10.02;;;7.85;;
17606;SDS011;69222;52.242;20.980;2023-09-19T00:17:07;9.55;;;7.57;;
17606;SDS011;69222;52.242;20.980;2023-09-19T00:19:37;9.30;;;8.38;;
17606;SDS011;69222;52.242;20.980;2023-09-19T00:22:05;10.93;;;7.95;;
17606;SDS011;69222;52.242;20.980;2023-09-19T00:24:33;9.63;;;7.95;;
17606;SDS011;69222;52.242;20.980;2023-09-19T00:27:01;10.10;;;7.57;;
17606;SDS011;69222;52.242;20.980;2023-09-19T00:29:29;12.20;;;7.72;;
17606;SDS011;69222;52.242;20.980;2023-09-19T00:31:58;9.38;;;7.47;;
17606;SDS011;69222;52.242;20.980;2023-09-19T00:34:27;11.27;;;8.10;;
17606;SDS011;69222;52.242;20.980;2023-09-19T00:36:57;9.82;;;7.93;;
17606;SDS011;69222;52.242;20.980;2023-09-19T00:39:26;10.57;;;8.23;;
17606;SDS011;69222;52.242;20.980;2023-09-19T00:41:57;9.38;;;7.85;;
17606;SDS011;69222;52.242;20.980;2023-09-19T00:44:31;10.73;;;8.23;;
17606;SDS011;69222;52.242;20.980;2023-09-19T00:47:01;10.27;;;8.45;;
17606;SDS011;69222;52.242;20.980;2023-09-19T00:49:29;9.20;;;7.95;;
17606;SDS011;69222;52.242;20.980;2023-09-19T00:52:00;11.60;;;8.05;;
17606;SDS011;69222;52.242;20.980;2023-09-19T00:54:31;8.75;;;7.95;;
17606;SDS011;69222;52.242;20.980;2023-09-19T00:57:00;8.95;;;8.05;;
17606;SDS011;69222;52.242;20.980;2023-09-19T00:59:28;13.00;;;8.70;;
17606;SDS011;69222;52.242;20.980;2023-09-19T01:01:56;10.77;;;8.25;;
17606;SDS011;69222;52.242;20.980;2023-09-19T01:04:26;8.90;;;8.00;;
17606;SDS011;69222;52.242;20.980;2023-09-19T01:06:55;11.43;;;8.57;;
17606;SDS011;69222;52.242;20.980;2023-09-19T01:09:25;9.75;;;7.95;;
17606;SDS011;69222;52.242;20.980;2023-09-19T01:11:57;11.77;;;8.43;;
17606;SDS011;69222;52.242;20.980;2023-09-19T01:14:29;10.00;;;8.38;;
17606;SDS011;69222;52.242;20.980;2023-09-19T01:17:03;10.88;;;7.90;;
17606;SDS011;69222;52.242;20.980;2023-09-19T01:19:56;12.20;;;8.40;;
17606;SDS011;69222;52.242;20.980;2023-09-19T01:22:46;9.60;;;7.93;;
17606;SDS011;69222;52.242;20.980;2023-09-19T01:25:33;12.85;;;8.85;;
17606;SDS011;69222;52.242;20.980;2023-09-19T01:28:30;11.23;;;8.90;;
17606;SDS011;69222;52.242;20.980;2023-09-19T01:31:06;9.40;;;7.95;;
17606;SDS011;69222;52.242;20.980;2023-09-19T01:33:56;11.65;;;8.60;;
17606;SDS011;69222;52.242;20.980;2023-09-19T01:36:27;10.15;;;8.23;;
17606;SDS011;69222;52.242;20.980;2023-09-19T01:38:57;9.95;;;8.55;;
17606;SDS011;69222;52.242;20.980;2023-09-19T01:41:41;11.45;;;8.73;;
17606;SDS011;69222;52.242;20.980;2023-09-19T01:44:17;9.77;;;8.52;;
17606;SDS011;69222;52.242;20.980;2023-09-19T01:46:53;10.70;;;8.35;;
17606;SDS011;69222;52.242;20.980;2023-09-19T01:49:27;9.95;;;8.05;;
17606;SDS011;69222;52.242;20.980;2023-09-19T01:52:03;8.27;;;7.47;;
17606;SDS011;69222;52.242;20.980;2023-09-19T01:54:40;10.52;;;8.63;;
17606;SDS011;69222;52.242;20.980;2023-09-19T01:57:15;10.38;;;8.43;;
17606;SDS011;69222;52.242;20.980;2023-09-19T01:59:50;9.10;;;8.18;;
17606;SDS011;69222;52.242;20.980;2023-09-19T02:02:24;11.15;;;8.95;;
17606;SDS011;69222;52.242;20.980;2023-09-19T02:04:53;9.60;;;7.82;;
17606;SDS011;69222;52.242;20.980;2023-09-19T02:07:22;9.55;;;7.85;;
17606;SDS011;69222;52.242;20.980;2023-09-19T02:09:50;9.15;;;8.25;;
17606;SDS011;69222;52.242;20.980;2023-09-19T02:12:18;11.77;;;8.85;;
17606;SDS011;69222;52.242;20.980;2023-09-19T02:14:46;9.52;;;8.48;;
17606;SDS011;69222;52.242;20.980;2023-09-19T02:17:14;9.63;;;8.63;;
17606;SDS011;69222;52.242;20.980;2023-09-19T02:19:45;10.15;;;8.60;;
17606;SDS011;69222;52.242;20.980;2023-09-19T02:22:13;12.35;;;8.35;;
17606;SDS011;69222;52.242;20.980;2023-09-19T02:24:42;9.00;;;7.60;;
17606;SDS011;69222;52.242;20.980;2023-09-19T02:27:12;11.02;;;8.23;;
17606;SDS011;69222;52.242;20.980;2023-09-19T02:29:42;13.98;;;8.77;;
17606;SDS011;69222;52.242;20.980;2023-09-19T02:32:10;10.40;;;8.35;;
17606;SDS011;69222;52.242;20.980;2023-09-19T02:34:38;10.38;;;8.48;;
17606;SDS011;69222;52.242;20.980;2023-09-19T02:37:08;9.35;;;8.10;;
17606;SDS011;69222;52.242;20.980;2023-09-19T02:39:36;10.07;;;8.98;;
17606;SDS011;69222;52.242;20.980;2023-09-19T02:42:04;9.70;;;7.78;;
17606;SDS011;69222;52.242;20.980;2023-09-19T02:44:32;9.55;;;8.55;;
17606;SDS011;69222;52.242;20.980;2023-09-19T02:47:00;9.85;;;8.20;;
17606;SDS011;69222;52.242;20.980;2023-09-19T02:49:28;10.98;;;8.80;;
17606;SDS011;69222;52.242;20.980;2023-09-19T02:51:56;9.75;;;8.50;;
17606;SDS011;69222;52.242;20.980;2023-09-19T02:54:26;11.60;;;9.38;;
17606;SDS011;69222;52.242;20.980;2023-09-19T02:56:54;12.27;;;8.90;;
17606;SDS011;69222;52.242;20.980;2023-09-19T02:59:22;10.82;;;9.18;;
17606;SDS011;69222;52.242;20.980;2023-09-19T03:01:51;10.32;;;9.23;;
17606;SDS011;69222;52.242;20.980;2023-09-19T03:04:21;11.52;;;8.20;;
17606;SDS011;69222;52.242;20.980;2023-09-19T03:06:49;9.23;;;8.32;;
17606;SDS011;69222;52.242;20.980;2023-09-19T03:09:17;9.63;;;8.32;;
17606;SDS011;69222;52.242;20.980;2023-09-19T03:11:47;9.38;;;8.23;;
17606;SDS011;69222;52.242;20.980;2023-09-19T03:14:15;12.25;;;8.68;;
17606;SDS011;69222;52.242;20.980;2023-09-19T03:16:43;9.02;;;8.13;;
17606;SDS011;69222;52.242;20.980;2023-09-19T03:19:11;10.35;;;8.45;;
17606;SDS011;69222;52.242;20.980;2023-09-19T03:21:41;10.20;;;8.93;;
17606;SDS011;69222;52.242;20.980;2023-09-19T03:24:09;10.05;;;8.50;;
17606;SDS011;69222;52.242;20.980;2023-09-19T03:26:38;9.43;;;8.43;;
17606;SDS011;69222;52.242;20.980;2023-09-19T03:29:08;9.20;;;8.20;;
17606;SDS011;69222;52.242;20.980;2023-09-19T03:31:36;11.27;;;8.55;;
17606;SDS011;69222;52.242;20.980;2023-09-19T03:34:04;11.27;;;8.77;;
17606;SDS011;69222;52.242;20.980;2023-09-19T03:36:32;8.88;;;7.93;;
17606;SDS011;69222;52.242;20.980;2023-09-19T03:39:00;9.07;;;8.18;;
17606;SDS011;69222;52.242;20.980;2023-09-19T03:41:31;11.75;;;8.98;;
17606;SDS011;69222;52.242;20.980;2023-09-19T03:43:59;10.90;;;8.88;;
17606;SDS011;69222;52.242;20.980;2023-09-19T03:46:28;9.23;;;8.25;;
17606;SDS011;69222;52.242;20.980;2023-09-19T03:48:58;8.95;;;8.05;;
17606;SDS011;69222;52.242;20.980;2023-09-19T03:51:26;9.75;;;8.73;;
17606;SDS011;69222;52.242;20.980;2023-09-19T03:53:54;13.43;;;8.90;;
17606;SDS011;69222;52.242;20.980;2023-09-19T03:56:22;9.82;;;8.60;;
17606;SDS011;69222;52.242;20.980;2023-09-19T03:58:50;9.07;;;8.02;;
17606;SDS011;69222;52.242;20.980;2023-09-19T04:01:18;9.13;;;8.13;;
17606;SDS011;69222;52.242;20.980;2023-09-19T04:03:48;10.05;;;8.45;;
17606;SDS011;69222;52.242;20.980;2023-09-19T04:06:18;9.20;;;8.00;;
17606;SDS011;69222;52.242;20.980;2023-09-19T04:08:46;10.05;;;8.32;;
17606;SDS011;69222;52.242;20.980;2023-09-19T04:11:14;8.85;;;7.65;;
17606;SDS011;69222;52.242;20.980;2023-09-19T04:13:42;9.27;;;7.97;;
17606;SDS011;69222;52.242;20.980;2023-09-19T04:16:10;13.20;;;8.80;;
17606;SDS011;69222;52.242;20.980;2023-09-19T04:18:39;9.43;;;8.18;;
17606;SDS011;69222;52.242;20.980;2023-09-19T04:21:08;9.57;;;8.00;;
17606;SDS011;69222;52.242;20.980;2023-09-19T04:23:36;9.98;;;8.75;;
17606;SDS011;69222;52.242;20.980;2023-09-19T04:26:04;9.50;;;8.50;;
17606;SDS011;69222;52.242;20.980;2023-09-19T04:28:32;10.15;;;8.30;;
17606;SDS011;69222;52.242;20.980;2023-09-19T04:31:02;9.13;;;8.23;;
17606;SDS011;69222;52.242;20.980;2023-09-19T04:33:30;10.35;;;7.95;;
17606;SDS011;69222;52.242;20.980;2023-09-19T04:36:01;11.48;;;8.27;;
17606;SDS011;69222;52.242;20.980;2023-09-19T04:38:53;11.18;;;8.13;;
17606;SDS011;69222;52.242;20.980;2023-09-19T04:41:21;11.15;;;8.07;;
17606;SDS011;69222;52.242;20.980;2023-09-19T04:43:49;10.35;;;8.18;;
17606;SDS011;69222;52.242;20.980;2023-09-19T04:46:18;14.00;;;8.45;;
17606;SDS011;69222;52.242;20.980;2023-09-19T04:48:46;9.85;;;7.82;;
17606;SDS011;69222;52.242;20.980;2023-09-19T04:51:14;8.85;;;7.70;;
17606;SDS011;69222;52.242;20.980;2023-09-19T04:53:42;10.40;;;9.35;;
17606;SDS011;69222;52.242;20.980;2023-09-19T04:56:11;10.80;;;9.05;;
17606;SDS011;69222;52.242;20.980;2023-09-19T04:58:39;12.60;;;8.15;;
17606;SDS011;69222;52.242;20.980;2023-09-19T05:01:08;11.95;;;8.13;;
17606;SDS011;69222;52.242;20.980;2023-09-19T05:03:38;8.52;;;7.63;;
17606;SDS011;69222;52.242;20.980;2023-09-19T05:06:07;8.98;;;8.05;;
17606;SDS011;69222;52.242;20.980;2023-09-19T05:08:35;9.30;;;7.82;;
17606;SDS011;69222;52.242;20.980;2023-09-19T05:11:03;9.30;;;8.02;;
17606;SDS011;69222;52.242;20.980;2023-09-19T05:13:33;10.32;;;7.63;;
17606;SDS011;69222;52.242;20.980;2023-09-19T05:16:01;10.23;;;7.97;;
17606;SDS011;69222;52.242;20.980;2023-09-19T05:18:30;10.02;;;8.60;;
17606;SDS011;69222;52.242;20.980;2023-09-19T05:20:58;10.85;;;7.68;;
17606;SDS011;69222;52.242;20.980;2023-09-19T05:23:29;9.48;;;8.00;;
17606;SDS011;69222;52.242;20.980;2023-09-19T05:25:57;12.93;;;8.15;;
17606;SDS011;69222;52.242;20.980;2023-09-19T05:28:26;11.30;;;8.77;;
17606;SDS011;69222;52.242;20.980;2023-09-19T05:30:55;9.05;;;7.38;;
17606;SDS011;69222;52.242;20.980;2023-09-19T05:33:24;9.50;;;7.82;;
17606;SDS011;69222;52.242;20.980;2023-09-19T05:35:54;9.68;;;7.63;;
17606;SDS011;69222;52.242;20.980;2023-09-19T05:38:22;10.00;;;8.07;;
17606;SDS011;69222;52.242;20.980;2023-09-19T05:40:53;15.60;;;8.75;;
17606;SDS011;69222;52.242;20.980;2023-09-19T05:43:21;10.52;;;8.63;;
17606;SDS011;69222;52.242;20.980;2023-09-19T05:45:51;10.75;;;8.38;;
17606;SDS011;69222;52.242;20.980;2023-09-19T05:48:24;9.75;;;7.57;;
17606;SDS011;69222;52.242;20.980;2023-09-19T05:50:52;11.75;;;8.70;;
17606;SDS011;69222;52.242;20.980;2023-09-19T05:53:20;11.13;;;7.72;;
17606;SDS011;69222;52.242;20.980;2023-09-19T05:55:49;11.23;;;7.60;;
17606;SDS011;69222;52.242;20.980;2023-09-19T05:58:18;10.32;;;7.97;;
17606;SDS011;69222;52.242;20.980;2023-09-19T06:00:47;11.80;;;8.35;;
17606;SDS011;69222;52.242;20.980;2023-09-19T06:03:15;11.90;;;8.30;;
17606;SDS011;69222;52.242;20.980;2023-09-19T06:05:46;11.88;;;7.53;;
17606;SDS011;69222;52.242;20.980;2023-09-19T06:08:16;10.15;;;7.90;;
17606;SDS011;69222;52.242;20.980;2023-09-19T06:10:44;16.13;;;7.90;;
17606;SDS011;69222;52.242;20.980;2023-09-19T06:13:13;15.43;;;8.07;;
17606;SDS011;69222;52.242;20.980;2023-09-19T06:15:44;12.20;;;8.07;;
17606;SDS011;69222;52.242;20.980;2023-09-19T06:18:13;9.15;;;8.15;;
17606;SDS011;69222;52.242;20.980;2023-09-19T06:20:47;11.90;;;7.93;;
17606;SDS011;69222;52.242;20.980;2023-09-19T06:23:17;12.35;;;8.02;;
17606;SDS011;69222;52.242;20.980;2023-09-19T06:25:46;9.18;;;8.25;;
17606;SDS011;69222;52.242;20.980;2023-09-19T06:28:14;14.43;;;8.20;;
17606;SDS011;69222;52.242;20.980;2023-09-19T06:30:49;9.88;;;7.65;;
17606;SDS011;69222;52.242;20.980;2023-09-19T06:33:17;11.02;;;8.75;;
17606;SDS011;69222;52.242;20.980;2023-09-19T06:35:49;12.82;;;8.32;;
17606;SDS011;69222;52.242;20.980;2023-09-19T06:38:19;10.00;;;8.20;;
17606;SDS011;69222;52.242;20.980;2023-09-19T06:40:47;14.07;;;8.35;;
17606;SDS011;69222;52.242;20.980;2023-09-19T06:43:15;11.90;;;8.15;;
17606;SDS011;69222;52.242;20.980;2023-09-19T06:45:43;8.73;;;7.75;;
17606;SDS011;69222;52.242;20.980;2023-09-19T06:48:13;15.68;;;8.50;;
17606;SDS011;69222;52.242;20.980;2023-09-19T06:50:42;11.80;;;8.10;;
17606;SDS011;69222;52.242;20.980;2023-09-19T06:53:12;10.77;;;7.60;;
17606;SDS011;69222;52.242;20.980;2023-09-19T06:55:40;10.48;;;7.97;;
17606;SDS011;69222;52.242;20.980;2023-09-19T06:58:10;15.60;;;8.68;;
17606;SDS011;69222;52.242;20.980;2023-09-19T07:00:38;10.63;;;8.55;;
17606;SDS011;69222;52.242;20.980;2023-09-19T07:03:06;10.70;;;8.07;;
17606;SDS011;69222;52.242;20.980;2023-09-19T07:05:38;9.50;;;8.02;;
17606;SDS011;69222;52.242;20.980;2023-09-19T07:08:09;12.88;;;8.35;;
17606;SDS011;69222;52.242;20.980;2023-09-19T07:10:41;12.57;;;8.40;;
17606;SDS011;69222;52.242;20.980;2023-09-19T07:13:11;14.30;;;8.65;;
17606;SDS011;69222;52.242;20.980;2023-09-19T07:15:39;9.20;;;8.30;;
17606;SDS011;69222;52.242;20.980;2023-09-19T07:18:13;10.38;;;8.13;;
17606;SDS011;69222;52.242;20.980;2023-09-19T07:20:43;11.43;;;8.23;;
17606;SDS011;69222;52.242;20.980;2023-09-19T07:23:16;9.50;;;8.00;;
17606;SDS011;69222;52.242;20.980;2023-09-19T07:25:46;10.35;;;8.93;;
17606;SDS011;69222;52.242;20.980;2023-09-19T07:28:16;9.25;;;8.32;;
17606;SDS011;69222;52.242;20.980;2023-09-19T07:30:48;12.57;;;9.68;;
17606;SDS011;69222;52.242;20.980;2023-09-19T07:33:16;12.23;;;8.85;;
17606;SDS011;69222;52.242;20.980;2023-09-19T07:35:47;13.43;;;9.77;;
17606;SDS011;69222;52.242;20.980;2023-09-19T07:38:16;13.75;;;9.85;;
17606;SDS011;69222;52.242;20.980;2023-09-19T07:40:45;11.27;;;9.65;;
17606;SDS011;69222;52.242;20.980;2023-09-19T07:43:13;12.00;;;9.80;;
17606;SDS011;69222;52.242;20.980;2023-09-19T07:45:41;14.20;;;9.88;;
17606;SDS011;69222;52.242;20.980;2023-09-19T07:48:09;10.45;;;9.45;;
17606;SDS011;69222;52.242;20.980;2023-09-19T07:50:41;11.23;;;9.98;;
17606;SDS011;69222;52.242;20.980;2023-09-19T07:53:11;12.35;;;11.13;;
17606;SDS011;69222;52.242;20.980;2023-09-19T07:55:40;11.57;;;10.32;;
17606;SDS011;69222;52.242;20.980;2023-09-19T07:58:10;10.98;;;9.43;;
17606;SDS011;69222;52.242;20.980;2023-09-19T08:00:40;12.63;;;9.82;;
17606;SDS011;69222;52.242;20.980;2023-09-19T08:03:08;16.80;;;10.60;;
17606;SDS011;69222;52.242;20.980;2023-09-19T08:05:43;13.07;;;10.30;;
17606;SDS011;69222;52.242;20.980;2023-09-19T08:08:12;13.00;;;10.88;;
17606;SDS011;69222;52.242;20.980;2023-09-19T08:10:42;11.73;;;10.27;;
17606;SDS011;69222;52.242;20.980;2023-09-19T08:13:14;11.90;;;10.68;;
17606;SDS011;69222;52.242;20.980;2023-09-19T08:15:44;15.07;;;11.02;;
17606;SDS011;69222;52.242;20.980;2023-09-19T08:18:13;11.25;;;10.07;;
17606;SDS011;69222;52.242;20.980;2023-09-19T08:20:42;13.82;;;10.57;;
17606;SDS011;69222;52.242;20.980;2023-09-19T08:23:12;12.23;;;10.50;;
17606;SDS011;69222;52.242;20.980;2023-09-19T08:25:40;11.88;;;10.32;;
17606;SDS011;69222;52.242;20.980;2023-09-19T08:28:08;11.48;;;10.05;;
17606;SDS011;69222;52.242;20.980;2023-09-19T08:30:40;11.90;;;10.70;;
17606;SDS011;69222;52.242;20.980;2023-09-19T08:33:08;13.00;;;10.52;;
17606;SDS011;69222;52.242;20.980;2023-09-19T08:35:37;11.20;;;10.00;;
17606;SDS011;69222;52.242;20.980;2023-09-19T08:38:07;11.07;;;9.00;;
17606;SDS011;69222;52.242;20.980;2023-09-19T08:40:37;11.40;;;9.27;;
17606;SDS011;69222;52.242;20.980;2023-09-19T08:43:06;9.30;;;8.27;;
17606;SDS011;69222;52.242;20.980;2023-09-19T08:45:35;10.75;;;9.05;;
17606;SDS011;69222;52.242;20.980;2023-09-19T08:48:08;9.05;;;8.05;;
17606;SDS011;69222;52.242;20.980;2023-09-19T08:50:47;9.30;;;8.40;;
17606;SDS011;69222;52.242;20.980;2023-09-19T08:53:20;9.98;;;8.77;;
17606;SDS011;69222;52.242;20.980;2023-09-19T08:55:54;9.40;;;8.43;;
17606;SDS011;69222;52.242;20.980;2023-09-19T08:58:26;11.93;;;8.45;;
17606;SDS011;69222;52.242;20.980;2023-09-19T09:00:57;9.73;;;8.50;;
17606;SDS011;69222;52.242;20.980;2023-09-19T09:03:32;8.82;;;7.72;;
17606;SDS011;69222;52.242;20.980;2023-09-19T09:06:01;10.00;;;8.55;;
17606;SDS011;69222;52.242;20.980;2023-09-19T09:08:30;9.43;;;7.70;;
17606;SDS011;69222;52.242;20.980;2023-09-19T09:10:59;8.13;;;7.30;;
17606;SDS011;69222;52.242;20.980;2023-09-19T09:13:27;7.97;;;6.82;;
17606;SDS011;69222;52.242;20.980;2023-09-19T09:15:57;9.20;;;7.85;;
17606;SDS011;69222;52.242;20.980;2023-09-19T09:18:25;10.10;;;7.53;;
17606;SDS011;69222;52.242;20.980;2023-09-19T09:20:55;11.20;;;7.03;;
17606;SDS011;69222;52.242;20.980;2023-09-19T09:23:23;9.50;;;7.70;;
17606;SDS011;69222;52.242;20.980;2023-09-19T09:25:52;11.32;;;7.00;;
17606;SDS011;69222;52.242;20.980;2023-09-19T09:28:26;8.43;;;6.43;;
17606;SDS011;69222;52.242;20.980;2023-09-19T09:30:55;7.28;;;6.53;;
17606;SDS011;69222;52.242;20.980;2023-09-19T09:33:24;6.43;;;5.82;;
17606;SDS011;69222;52.242;20.980;2023-09-19T09:35:56;9.88;;;6.78;;
17606;SDS011;69222;52.242;20.980;2023-09-19T09:38:27;9.48;;;6.30;;
17606;SDS011;69222;52.242;20.980;2023-09-19T09:40:59;12.73;;;7.03;;
17606;SDS011;69222;52.242;20.980;2023-09-19T09:43:33;10.43;;;6.95;;
17606;SDS011;69222;52.242;20.980;2023-09-19T09:46:07;10.00;;;7.22;;
17606;SDS011;69222;52.242;20.980;2023-09-19T09:48:59;9.13;;;7.32;;
17606;SDS011;69222;52.242;20.980;2023-09-19T09:51:48;9.75;;;7.25;;
17606;SDS011;69222;52.242;20.980;2023-09-19T09:54:26;11.20;;;7.18;;
17606;SDS011;69222;52.242;20.980;2023-09-19T09:57:01;11.48;;;8.45;;
17606;SDS011;69222;52.242;20.980;2023-09-19T09:59:46;15.10;;;8.90;;
17606;SDS011;69222;52.242;20.980;2023-09-19T10:02:16;9.60;;;8.55;;
17606;SDS011;69222;52.242;20.980;2023-09-19T10:04:56;12.73;;;7.68;;
17606;SDS011;69222;52.242;20.980;2023-09-19T10:07:38;10.02;;;7.68;;
17606;SDS011;69222;52.242;20.980;2023-09-19T10:10:10;10.40;;;8.43;;
17606;SDS011;69222;52.242;20.980;2023-09-19T10:12:43;10.32;;;8.20;;
17606;SDS011;69222;52.242;20.980;2023-09-19T10:15:18;9.40;;;7.40;;
17606;SDS011;69222;52.242;20.980;2023-09-19T10:17:48;11.10;;;7.75;;
17606;SDS011;69222;52.242;20.980;2023-09-19T10:20:16;10.95;;;7.65;;
17606;SDS011;69222;52.242;20.980;2023-09-19T10:23:08;7.68;;;6.88;;
17606;SDS011;69222;52.242;20.980;2023-09-19T10:25:40;10.93;;;6.38;;
17606;SDS011;69222;52.242;20.980;2023-09-19T10:28:09;8.23;;;6.35;;
17606;SDS011;69222;52.242;20.980;2023-09-19T10:30:40;7.47;;;5.75;;
17606;SDS011;69222;52.242;20.980;2023-09-19T10:33:10;7.60;;;6.18;;
17606;SDS011;69222;52.242;20.980;2023-09-19T10:35:41;7.72;;;6.50;;
17606;SDS011;69222;52.242;20.980;2023-09-19T10:38:12;7.30;;;6.40;;
17606;SDS011;69222;52.242;20.980;2023-09-19T10:40:45;7.53;;;5.50;;
17606;SDS011;69222;52.242;20.980;2023-09-19T10:43:17;7.07;;;5.90;;
17606;SDS011;69222;52.242;20.980;2023-09-19T10:45:48;5.97;;;5.38;;
17606;SDS011;69222;52.242;20.980;2023-09-19T10:48:19;6.85;;;6.15;;
17606;SDS011;69222;52.242;20.980;2023-09-19T10:50:53;7.82;;;7.10;;
17606;SDS011;69222;52.242;20.980;2023-09-19T10:53:40;10.13;;;6.43;;
17606;SDS011;69222;52.242;20.980;2023-09-19T10:56:13;11.35;;;7.18;;
17606;SDS011;69222;52.242;20.980;2023-09-19T10:58:46;10.18;;;6.80;;
17606;SDS011;69222;52.242;20.980;2023-09-19T11:01:16;6.93;;;5.78;;
17606;SDS011;69222;52.242;20.980;2023-09-19T11:03:47;6.90;;;5.93;;
17606;SDS011;69222;52.242;20.980;2023-09-19T11:06:19;6.60;;;5.82;;
17606;SDS011;69222;52.242;20.980;2023-09-19T11:08:53;7.28;;;5.50;;
17606;SDS011;69222;52.242;20.980;2023-09-19T11:11:42;5.68;;;5.00;;
17606;SDS011;69222;52.242;20.980;2023-09-19T11:14:28;8.63;;;4.78;;
17606;SDS011;69222;52.242;20.980;2023-09-19T11:20:25;8.18;;;5.05;;
17606;SDS011;69222;52.242;20.980;2023-09-19T11:23:16;8.30;;;4.82;;
17606;SDS011;69222;52.242;20.980;2023-09-19T11:25:45;5.63;;;5.07;;
17606;SDS011;69222;52.242;20.980;2023-09-19T11:28:31;6.82;;;4.90;;
17606;SDS011;69222;52.242;20.980;2023-09-19T11:34:41;4.63;;;4.22;;
17606;SDS011;69222;52.242;20.980;2023-09-19T11:40:37;4.90;;;4.13;;
17606;SDS011;69222;52.242;20.980;2023-09-19T11:46:07;6.65;;;4.47;;
17606;SDS011;69222;52.242;20.980;2023-09-19T11:48:35;6.20;;;5.05;;
17606;SDS011;69222;52.242;20.980;2023-09-19T11:51:11;7.22;;;4.80;;
17606;SDS011;69222;52.242;20.980;2023-09-19T11:53:50;5.88;;;4.97;;
17606;SDS011;69222;52.242;20.980;2023-09-19T11:56:19;6.32;;;5.07;;
17606;SDS011;69222;52.242;20.980;2023-09-19T11:58:52;5.75;;;5.18;;
17606;SDS011;69222;52.242;20.980;2023-09-19T12:01:23;7.40;;;4.57;;
17606;SDS011;69222;52.242;20.980;2023-09-19T12:03:56;6.05;;;4.88;;
17606;SDS011;69222;52.242;20.980;2023-09-19T12:06:26;6.70;;;5.13;;
17606;SDS011;69222;52.242;20.980;2023-09-19T12:08:56;7.75;;;5.43;;
17606;SDS011;69222;52.242;20.980;2023-09-19T12:11:27;5.68;;;5.07;;
17606;SDS011;69222;52.242;20.980;2023-09-19T12:14:02;8.32;;;5.22;;
17606;SDS011;69222;52.242;20.980;2023-09-19T12:16:31;6.63;;;5.60;;
17606;SDS011;69222;52.242;20.980;2023-09-19T12:21:54;6.43;;;4.97;;
17606;SDS011;69222;52.242;20.980;2023-09-19T12:24:23;6.03;;;5.43;;
17606;SDS011;69222;52.242;20.980;2023-09-19T12:27:00;7.47;;;5.47;;
17606;SDS011;69222;52.242;20.980;2023-09-19T12:29:32;6.65;;;5.80;;
17606;SDS011;69222;52.242;20.980;2023-09-19T12:32:10;7.85;;;6.22;;
17606;SDS011;69222;52.242;20.980;2023-09-19T12:34:38;6.88;;;5.75;;
17606;SDS011;69222;52.242;20.980;2023-09-19T12:37:09;6.75;;;5.82;;
17606;SDS011;69222;52.242;20.980;2023-09-19T12:39:47;7.68;;;5.78;;
17606;SDS011;69222;52.242;20.980;2023-09-19T12:42:18;8.23;;;5.97;;
17606;SDS011;69222;52.242;20.980;2023-09-19T12:44:49;8.85;;;6.43;;
17606;SDS011;69222;52.242;20.980;2023-09-19T12:47:22;7.90;;;5.50;;
17606;SDS011;69222;52.242;20.980;2023-09-19T12:50:07;8.07;;;5.53;;
17606;SDS011;69222;52.242;20.980;2023-09-19T12:52:41;6.43;;;5.43;;
17606;SDS011;69222;52.242;20.980;2023-09-19T12:55:21;6.30;;;5.68;;
17606;SDS011;69222;52.242;20.980;2023-09-19T12:57:58;6.30;;;5.70;;
17606;SDS011;69222;52.242;20.980;2023-09-19T13:00:35;8.35;;;5.75;;
17606;SDS011;69222;52.242;20.980;2023-09-19T13:03:12;7.07;;;5.72;;
17606;SDS011;69222;52.242;20.980;2023-09-19T13:05:49;7.65;;;6.07;;
17606;SDS011;69222;52.242;20.980;2023-09-19T13:08:21;9.93;;;5.80;;
17606;SDS011;69222;52.242;20.980;2023-09-19T13:11:08;7.43;;;6.55;;
17606;SDS011;69222;52.242;20.980;2023-09-19T13:13:40;9.52;;;6.22;;
17606;SDS011;69222;52.242;20.980;2023-09-19T13:16:16;7.63;;;6.32;;
17606;SDS011;69222;52.242;20.980;2023-09-19T13:18:49;7.20;;;6.50;;
17606;SDS011;69222;52.242;20.980;2023-09-19T13:21:29;6.82;;;6.22;;
17606;SDS011;69222;52.242;20.980;2023-09-19T13:24:19;8.57;;;6.55;;
17606;SDS011;69222;52.242;20.980;2023-09-19T13:26:49;6.97;;;6.25;;
17606;SDS011;69222;52.242;20.980;2023-09-19T13:29:17;9.27;;;6.95;;
17606;SDS011;69222;52.242;20.980;2023-09-19T13:31:47;7.85;;;6.68;;
17606;SDS011;69222;52.242;20.980;2023-09-19T13:34:16;9.32;;;6.78;;
17606;SDS011;69222;52.242;20.980;2023-09-19T13:36:44;10.35;;;6.47;;
17606;SDS011;69222;52.242;20.980;2023-09-19T13:39:15;8.63;;;7.20;;
17606;SDS011;69222;52.242;20.980;2023-09-19T13:41:43;8.50;;;6.43;;
17606;SDS011;69222;52.242;20.980;2023-09-19T13:44:13;9.80;;;7.03;;
17606;SDS011;69222;52.242;20.980;2023-09-19T13:46:41;9.93;;;7.45;;
17606;SDS011;69222;52.242;20.980;2023-09-19T13:49:14;8.75;;;7.43;;
17606;SDS011;69222;52.242;20.980;2023-09-19T13:51:48;8.38;;;7.53;;
17606;SDS011;69222;52.242;20.980;2023-09-19T13:54:16;9.85;;;7.25;;
17606;SDS011;69222;52.242;20.980;2023-09-19T13:56:44;7.85;;;6.90;;
17606;SDS011;69222;52.242;20.980;2023-09-19T13:59:12;9.65;;;7.90;;
17606;SDS011;69222;52.242;20.980;2023-09-19T14:01:39;10.40;;;7.63;;
17606;SDS011;69222;52.242;20.980;2023-09-19T14:04:08;8.77;;;7.53;;
17606;SDS011;69222;52.242;20.980;2023-09-19T14:06:38;10.73;;;7.50;;
17606;SDS011;69222;52.242;20.980;2023-09-19T14:09:09;9.43;;;7.93;;
17606;SDS011;69222;52.242;20.980;2023-09-19T14:11:38;10.73;;;7.88;;
17606;SDS011;69222;52.242;20.980;2023-09-19T14:14:06;9.77;;;7.68;;
17606;SDS011;69222;52.242;20.980;2023-09-19T14:16:34;9.95;;;7.47;;
17606;SDS011;69222;52.242;20.980;2023-09-19T14:19:03;9.00;;;7.53;;
17606;SDS011;69222;52.242;20.980;2023-09-19T14:21:31;8.75;;;7.78;;
17606;SDS011;69222;52.242;20.980;2023-09-19T14:24:01;8.15;;;7.35;;
17606;SDS011;69222;52.242;20.980;2023-09-19T14:26:29;6.68;;;6.05;;
17606;SDS011;69222;52.242;20.980;2023-09-19T14:28:57;9.38;;;5.50;;
17606;SDS011;69222;52.242;20.980;2023-09-19T14:31:25;6.10;;;4.93;;
17606;SDS011;69222;52.242;20.980;2023-09-19T14:33:54;5.68;;;5.00;;
17606;SDS011;69222;52.242;20.980;2023-09-19T14:36:23;4.82;;;4.45;;
17606;SDS011;69222;52.242;20.980;2023-09-19T14:38:52;6.18;;;4.18;;
17606;SDS011;69222;52.242;20.980;2023-09-19T14:41:23;7.43;;;4.40;;
17606;SDS011;69222;52.242;20.980;2023-09-19T14:43:52;5.15;;;4.28;;
17606;SDS011;69222;52.242;20.980;2023-09-19T14:46:21;6.57;;;4.43;;
17606;SDS011;69222;52.242;20.980;2023-09-19T14:48:51;5.50;;;4.50;;
17606;SDS011;69222;52.242;20.980;2023-09-19T14:51:19;6.68;;;3.75;;
17606;SDS011;69222;52.242;20.980;2023-09-19T14:53:47;5.78;;;4.10;;
17606;SDS011;69222;52.242;20.980;2023-09-19T14:56:15;5.57;;;3.67;;
17606;SDS011;69222;52.242;20.980;2023-09-19T14:58:48;4.80;;;3.80;;
17606;SDS011;69222;52.242;20.980;2023-09-19T15:01:16;3.80;;;3.50;;
17606;SDS011;69222;52.242;20.980;2023-09-19T15:03:44;4.47;;;3.50;;
17606;SDS011;69222;52.242;20.980;2023-09-19T15:06:13;4.82;;;4.00;;
17606;SDS011;69222;52.242;20.980;2023-09-19T15:08:44;3.80;;;3.42;;